createdAt,value
2023-11-20T00:01:27.551Z,0.00
2023-11-20T00:04:00.446Z,0.30
2023-11-20T00:06:33.682Z,0.10
2023-11-20T00:09:10.478Z,0.10
2023-11-20T00:11:47.692Z,0.32
2023-11-20T00:14:20.098Z,0.80
2023-11-20T00:16:54.941Z,1.00
2023-11-20T00:19:29.905Z,0.98
2023-11-20T00:22:03.569Z,0.25
2023-11-20T00:24:35.790Z,0.60
2023-11-20T00:27:08.671Z,0.32
2023-11-20T00:29:41.215Z,0.50
2023-11-20T00:32:19.391Z,0.20
2023-11-20T00:34:55.150Z,0.30
2023-11-20T00:37:28.350Z,0.30
2023-11-20T00:40:08.986Z,0.10
2023-11-20T00:46:15.397Z,0.43
2023-11-20T00:48:49.345Z,0.20
2023-11-20T00:51:27.021Z,0.20
2023-11-20T00:53:56.741Z,0.10
2023-11-20T00:56:30.075Z,0.10
2023-11-20T00:59:04.860Z,0.20
2023-11-20T01:01:40.475Z,0.17
2023-11-20T01:04:13.066Z,0.10
2023-11-20T01:06:49.105Z,0.10
2023-11-20T01:09:24.056Z,0.30
2023-11-20T01:12:00.062Z,0.30
2023-11-20T01:14:34.776Z,0.55
2023-11-20T01:17:08.006Z,0.30
2023-11-20T01:19:40.159Z,0.35
2023-11-20T01:22:17.800Z,0.40
2023-11-20T01:24:49.756Z,1.63
2023-11-20T01:27:26.807Z,0.60
2023-11-20T01:30:02.796Z,0.63
2023-11-20T01:32:36.050Z,1.20
2023-11-20T01:35:10.511Z,1.80
2023-11-20T01:37:45.580Z,1.27
2023-11-20T01:40:17.924Z,1.17
2023-11-20T01:42:50.551Z,1.17
2023-11-20T01:45:25.560Z,0.30
2023-11-20T01:47:58.898Z,0.35
2023-11-20T01:50:36.629Z,0.70
2023-11-20T01:53:12.976Z,0.40
2023-11-20T01:55:44.852Z,0.60
2023-11-20T01:58:22.990Z,1.13
2023-11-20T02:00:52.566Z,0.43
2023-11-20T02:03:26.191Z,0.80
2023-11-20T02:05:57.943Z,5.72
2023-11-20T02:08:31.259Z,2.42
2023-11-20T02:11:03.969Z,3.35
2023-11-20T02:13:39.043Z,4.45
2023-11-20T02:16:15.254Z,4.05
2023-11-20T02:18:48.489Z,1.20
2023-11-20T02:21:23.218Z,1.33
2023-11-20T02:24:00.519Z,1.45
2023-11-20T02:27:15.021Z,2.10
2023-11-20T02:29:55.237Z,0.50
2023-11-20T02:32:26.857Z,0.70
2023-11-20T02:34:59.072Z,0.10
2023-11-20T02:37:32.439Z,0.00
2023-11-20T02:40:10.047Z,0.40
2023-11-20T02:42:45.774Z,0.08
2023-11-20T02:45:19.686Z,0.20
2023-11-20T02:47:57.149Z,0.20
2023-11-20T02:50:31.970Z,0.20
2023-11-20T02:53:10.291Z,0.10
2023-11-20T02:55:41.927Z,0.10
2023-11-20T02:58:14.141Z,0.10
2023-11-20T03:00:47.824Z,0.10
2023-11-20T03:03:25.727Z,0.10
2023-11-20T03:06:01.506Z,0.10
2023-11-20T03:08:37.481Z,0.20
2023-11-20T03:11:13.333Z,0.30
2023-11-20T03:13:47.616Z,0.20
2023-11-20T03:16:20.481Z,0.20
2023-11-20T03:21:27.605Z,0.13
2023-11-20T03:23:58.120Z,0.10
2023-11-20T03:26:33.867Z,0.10
2023-11-20T03:29:07.019Z,0.10
2023-11-20T03:31:40.915Z,0.10
2023-11-20T03:34:16.038Z,0.20
2023-11-20T03:36:48.403Z,0.10
2023-11-20T03:39:25.268Z,0.10
2023-11-20T03:42:03.739Z,0.15
2023-11-20T03:47:14.478Z,0.45
2023-11-20T03:49:49.238Z,0.28
2023-11-20T03:52:21.155Z,0.75
2023-11-20T03:54:55.335Z,1.57
2023-11-20T03:57:31.056Z,0.57
2023-11-20T04:00:06.638Z,0.43
2023-11-20T04:02:39.834Z,0.47
2023-11-20T04:05:12.654Z,0.10
2023-11-20T04:10:23.934Z,0.60
2023-11-20T04:12:55.814Z,0.10
2023-11-20T04:15:28.056Z,0.20
2023-11-20T04:18:03.144Z,0.13
2023-11-20T04:20:39.924Z,0.10
2023-11-20T04:23:19.248Z,0.10
2023-11-20T04:25:51.637Z,0.10
2023-11-20T04:28:28.687Z,0.10
2023-11-20T04:31:03.291Z,0.20
2023-11-20T04:33:37.504Z,0.10
2023-11-20T04:36:10.961Z,0.10
2023-11-20T04:38:43.464Z,0.10
2023-11-20T04:41:15.554Z,0.03
2023-11-20T04:43:48.351Z,0.10
2023-11-20T04:48:53.801Z,0.00
2023-11-20T04:51:28.487Z,0.00
2023-11-20T04:54:03.378Z,0.20
2023-11-20T04:56:39.231Z,0.10
2023-11-20T04:59:11.322Z,0.47
2023-11-20T05:01:46.298Z,0.10
2023-11-20T05:04:19.927Z,0.10
2023-11-20T05:06:52.122Z,0.10
2023-11-20T05:09:26.301Z,0.10
2023-11-20T05:12:05.282Z,0.10
2023-11-20T05:14:42.517Z,0.20
2023-11-20T05:17:19.841Z,0.10
2023-11-20T05:19:53.297Z,0.20
2023-11-20T05:22:31.189Z,0.10
2023-11-20T05:25:08.818Z,1.70
2023-11-20T05:27:45.666Z,0.50
2023-11-20T05:30:18.153Z,1.52
2023-11-20T05:32:55.096Z,8.02
2023-11-20T05:35:28.513Z,21.20
2023-11-20T05:38:04.055Z,13.57
2023-11-20T05:40:36.317Z,21.00
2023-11-20T05:43:11.273Z,12.45
2023-11-20T05:45:43.583Z,7.55
2023-11-20T05:48:18.661Z,9.57
2023-11-20T05:50:52.248Z,8.13
2023-11-20T05:53:27.165Z,9.80
2023-11-20T05:56:05.255Z,10.55
2023-11-20T05:58:39.144Z,5.20
2023-11-20T06:01:11.793Z,4.18
2023-11-20T06:03:49.634Z,3.45
2023-11-20T06:06:25.748Z,4.95
2023-11-20T06:09:00.024Z,5.95
2023-11-20T06:11:34.819Z,4.47
2023-11-20T06:14:09.159Z,1.67
2023-11-20T06:16:44.756Z,3.85
2023-11-20T06:19:23.484Z,4.53
2023-11-20T06:21:58.511Z,3.60
2023-11-20T06:24:35.301Z,2.58
2023-11-20T06:27:10.515Z,2.90
2023-11-20T06:29:47.751Z,2.45
2023-11-20T06:32:19.769Z,1.90
2023-11-20T06:34:54.043Z,1.43
2023-11-20T06:37:27.447Z,1.00
2023-11-20T06:40:09.782Z,0.52
2023-11-20T06:42:45.605Z,0.80
2023-11-20T06:47:14.535Z,0.03
2023-11-20T06:49:46.748Z,0.20
2023-11-20T06:52:20.959Z,0.00
2023-11-20T06:54:55.865Z,0.20
2023-11-20T06:57:31.005Z,0.00
2023-11-20T07:00:07.488Z,0.00
2023-11-20T07:02:40.842Z,0.00
2023-11-20T07:05:18.925Z,0.00
2023-11-20T07:07:56.851Z,0.00
2023-11-20T07:10:29.106Z,0.00
2023-11-20T07:13:06.317Z,0.10
2023-11-20T07:15:42.439Z,0.00
2023-11-20T07:18:16.170Z,0.00
2023-11-20T07:20:48.244Z,0.00
2023-11-20T07:23:20.124Z,0.00
2023-11-20T07:25:57.563Z,0.00
2023-11-20T07:28:29.569Z,0.00
2023-11-20T07:31:01.340Z,0.00
2023-11-20T07:33:34.812Z,0.00
2023-11-20T07:36:11.322Z,0.00
2023-11-20T07:38:45.296Z,0.00
2023-11-20T07:41:20.134Z,0.00
2023-11-20T07:43:54.915Z,0.00
2023-11-20T07:46:39.057Z,0.00
2023-11-20T07:49:12.525Z,0.00
2023-11-20T07:51:44.889Z,0.00
2023-11-20T07:54:17.254Z,0.00
2023-11-20T07:56:50.037Z,0.00
2023-11-20T07:59:25.130Z,0.00
2023-11-20T08:02:02.499Z,0.00
2023-11-20T08:04:36.391Z,0.10
2023-11-20T08:07:06.673Z,0.00
2023-11-20T08:09:37.349Z,0.10
2023-11-20T08:12:08.264Z,0.47
2023-11-20T08:14:38.729Z,0.00
2023-11-20T08:17:13.643Z,0.10
2023-11-20T08:19:47.768Z,0.00
2023-11-20T08:22:19.085Z,0.00
2023-11-20T08:24:49.031Z,0.00
2023-11-20T08:27:19.073Z,0.00
2023-11-20T08:29:48.967Z,0.00
2023-11-20T08:32:19.047Z,0.00
2023-11-20T08:34:50.484Z,0.00
2023-11-20T08:37:20.581Z,0.00
2023-11-20T08:39:51.428Z,0.10
2023-11-20T08:42:21.765Z,0.10
2023-11-20T08:44:54.991Z,0.10
2023-11-20T08:47:25.154Z,0.22
2023-11-20T08:49:56.815Z,0.00
2023-11-20T08:52:26.795Z,0.00
2023-11-20T08:54:57.259Z,0.00
2023-11-20T08:57:27.166Z,0.10
2023-11-20T08:59:57.085Z,0.00
2023-11-20T09:02:27.238Z,0.00
2023-11-20T09:04:58.575Z,0.00
2023-11-20T09:07:28.503Z,0.00
2023-11-20T09:09:58.464Z,0.00
2023-11-20T09:12:28.350Z,0.00
2023-11-20T09:14:58.215Z,0.00
2023-11-20T09:17:28.064Z,0.00
2023-11-20T09:19:59.532Z,0.00
2023-11-20T09:22:29.404Z,0.00
2023-11-20T09:25:05.357Z,0.00
2023-11-20T09:27:36.375Z,0.00
2023-11-20T09:30:08.236Z,0.00
2023-11-20T09:32:38.175Z,0.00
2023-11-20T09:35:12.094Z,0.00
2023-11-20T09:37:42.101Z,0.00
2023-11-20T09:40:15.023Z,0.00
2023-11-20T09:42:45.620Z,0.00
2023-11-20T09:47:12.950Z,0.00
2023-11-20T09:49:46.744Z,0.00
2023-11-20T09:52:17.180Z,0.00
2023-11-20T09:54:47.734Z,0.00
2023-11-20T09:57:23.005Z,0.00
2023-11-20T09:59:52.968Z,0.00
2023-11-20T10:02:24.673Z,0.00
2023-11-20T10:04:57.344Z,0.00
2023-11-20T10:07:31.782Z,0.00
2023-11-20T10:10:03.396Z,0.00
2023-11-20T10:12:36.649Z,0.00
2023-11-20T10:15:08.669Z,0.00
2023-11-20T10:17:41.086Z,0.10
2023-11-20T10:20:12.119Z,0.00
2023-11-20T10:22:42.001Z,0.00
2023-11-20T10:25:12.931Z,0.13
2023-11-20T10:27:44.509Z,0.00
2023-11-20T10:30:15.758Z,0.00
2023-11-20T10:32:47.927Z,0.00
2023-11-20T10:35:19.815Z,0.00
2023-11-20T10:37:59.560Z,0.00
2023-11-20T10:40:29.780Z,0.00
2023-11-20T10:43:00.411Z,0.00
2023-11-20T10:45:30.444Z,0.00
2023-11-20T10:48:01.936Z,0.00
2023-11-20T10:50:36.587Z,0.00
2023-11-20T10:53:08.785Z,0.00
2023-11-20T10:55:45.250Z,0.00
2023-11-20T10:58:15.590Z,0.00
2023-11-20T11:00:46.380Z,0.00
2023-11-20T11:03:19.337Z,0.00
2023-11-20T11:05:50.806Z,0.00
2023-11-20T11:08:23.922Z,0.13
2023-11-20T11:10:56.539Z,0.00
2023-11-20T11:16:01.758Z,0.00
2023-11-20T11:18:36.500Z,0.00
2023-11-20T11:21:12.231Z,0.00
2023-11-20T11:23:51.128Z,0.00
2023-11-20T11:26:28.342Z,0.00
2023-11-20T11:29:03.139Z,0.00
2023-11-20T11:31:49.672Z,0.00
2023-11-20T11:34:43.862Z,0.00
2023-11-20T11:37:27.955Z,0.00
2023-11-20T11:40:11.627Z,0.00
2023-11-20T11:42:47.919Z,0.00
2023-11-20T11:45:20.606Z,0.10
2023-11-20T11:47:52.350Z,0.00
2023-11-20T11:50:23.880Z,0.00
2023-11-20T11:52:53.763Z,0.00
2023-11-20T11:55:30.006Z,0.00
2023-11-20T11:58:04.608Z,0.00
2023-11-20T12:00:34.519Z,0.00
2023-11-20T12:03:11.034Z,0.00
2023-11-20T12:06:19.915Z,0.00
2023-11-20T12:08:55.525Z,0.00
2023-11-20T12:11:55.422Z,0.00
2023-11-20T12:14:25.352Z,0.00
2023-11-20T12:16:55.737Z,0.00
2023-11-20T12:19:26.890Z,0.00
2023-11-20T12:21:59.160Z,0.00
2023-11-20T12:24:30.621Z,0.00
2023-11-20T12:27:01.121Z,0.00
2023-11-20T12:29:33.221Z,0.00
2023-11-20T12:32:05.463Z,0.00
2023-11-20T12:34:36.222Z,0.10
2023-11-20T12:37:07.890Z,0.00
2023-11-20T12:39:38.770Z,0.10
2023-11-20T12:42:09.781Z,0.00
2023-11-20T12:47:12.774Z,0.00
2023-11-20T12:49:43.279Z,0.00
2023-11-20T12:52:14.221Z,0.00
2023-11-20T12:54:45.380Z,0.10
2023-11-20T12:57:15.284Z,0.10
2023-11-20T12:59:48.271Z,0.00
2023-11-20T13:02:25.885Z,0.00
2023-11-20T13:04:56.006Z,0.10
2023-11-20T13:07:26.353Z,0.00
2023-11-20T13:09:56.392Z,0.00
2023-11-20T13:12:26.481Z,0.00
2023-11-20T13:15:05.741Z,0.00
2023-11-20T13:17:39.120Z,0.00
2023-11-20T13:20:44.016Z,0.00
2023-11-20T13:23:24.316Z,0.00
2023-11-20T13:25:55.647Z,0.10
2023-11-20T13:28:29.150Z,0.10
2023-11-20T13:31:01.915Z,0.10
2023-11-20T13:33:34.767Z,0.05
2023-11-20T13:36:09.824Z,0.08
2023-11-20T13:38:40.477Z,0.10
2023-11-20T13:41:10.979Z,0.20
2023-11-20T13:43:41.921Z,0.00
2023-11-20T13:46:12.185Z,0.10
2023-11-20T13:48:44.005Z,0.00
2023-11-20T13:51:14.508Z,0.00
2023-11-20T13:53:45.340Z,0.00
2023-11-20T13:56:15.259Z,0.00
2023-11-20T13:58:45.980Z,0.10
2023-11-20T14:01:16.890Z,0.10
2023-11-20T14:03:48.623Z,0.10
2023-11-20T14:06:19.440Z,0.10
2023-11-20T14:08:49.979Z,0.00
2023-11-20T14:11:19.979Z,0.00
2023-11-20T14:13:51.483Z,0.00
2023-11-20T14:16:21.617Z,0.00
2023-11-20T14:18:53.013Z,0.00
2023-11-20T14:21:22.882Z,0.00
2023-11-20T14:23:52.780Z,0.00
2023-11-20T14:26:29.845Z,0.00
2023-11-20T14:29:04.692Z,0.10
2023-11-20T14:31:34.818Z,0.10
2023-11-20T14:34:06.500Z,0.10
2023-11-20T14:36:36.399Z,0.00
2023-11-20T14:39:06.747Z,0.05
2023-11-20T14:41:36.492Z,0.00
2023-11-20T14:44:06.778Z,0.00
2023-11-20T14:46:37.030Z,0.10
2023-11-20T14:49:09.930Z,0.10
2023-11-20T14:51:39.823Z,0.00
2023-11-20T14:54:10.063Z,0.00
2023-11-20T14:56:41.242Z,0.00
2023-11-20T14:59:11.401Z,0.00
2023-11-20T15:01:41.582Z,0.00
2023-11-20T15:04:13.267Z,0.00
2023-11-20T15:06:45.023Z,0.00
2023-11-20T15:09:14.863Z,0.00
2023-11-20T15:11:44.621Z,0.00
2023-11-20T15:14:15.460Z,0.00
2023-11-20T15:16:45.376Z,0.00
2023-11-20T15:19:16.738Z,0.00
2023-11-20T15:21:46.627Z,0.00
2023-11-20T15:24:16.448Z,0.00
2023-11-20T15:26:49.891Z,0.00
2023-11-20T15:29:19.751Z,0.00
2023-11-20T15:31:49.666Z,0.20
2023-11-20T15:34:21.211Z,0.00
2023-11-20T15:36:51.167Z,0.03
2023-11-20T15:39:21.458Z,0.00
2023-11-20T15:41:51.566Z,0.00
2023-11-20T15:47:12.553Z,0.00
2023-11-20T15:49:42.542Z,0.00
2023-11-20T15:52:12.954Z,0.00
2023-11-20T15:54:43.031Z,0.00
2023-11-20T15:57:13.245Z,0.00
2023-11-20T15:59:44.000Z,0.00
2023-11-20T16:02:15.358Z,0.00
2023-11-20T16:04:45.875Z,0.00
2023-11-20T16:07:16.331Z,0.00
2023-11-20T16:09:46.238Z,0.00
2023-11-20T16:12:16.633Z,0.00
2023-11-20T16:14:46.750Z,0.00
2023-11-20T16:17:18.340Z,0.00
2023-11-20T16:19:48.419Z,0.00
2023-11-20T16:22:18.416Z,0.00
2023-11-20T16:24:52.525Z,0.00
2023-11-20T16:27:22.564Z,0.17
2023-11-20T16:29:52.416Z,0.10
2023-11-20T16:32:23.886Z,0.20
2023-11-20T16:34:53.605Z,0.50
2023-11-20T16:37:23.370Z,0.63
2023-11-20T16:39:53.325Z,0.40
2023-11-20T16:42:23.239Z,0.50
2023-11-20T16:44:53.201Z,0.38
2023-11-20T16:47:24.854Z,0.30
2023-11-20T16:49:55.702Z,0.50
2023-11-20T16:52:25.900Z,0.98
2023-11-20T16:54:55.746Z,0.93
2023-11-20T16:57:25.633Z,1.00
2023-11-20T16:59:56.016Z,0.80
2023-11-20T17:02:27.465Z,0.60
2023-11-20T17:04:58.340Z,0.57
2023-11-20T17:07:28.246Z,0.63
2023-11-20T17:09:58.235Z,0.38
2023-11-20T17:12:28.101Z,0.52
2023-11-20T17:14:58.546Z,0.65
2023-11-20T17:17:29.775Z,0.55
2023-11-20T17:19:59.648Z,0.60
2023-11-20T17:22:30.717Z,0.65
2023-11-20T17:25:00.983Z,0.30
2023-11-20T17:27:30.830Z,0.32
2023-11-20T17:30:02.353Z,0.30
2023-11-20T17:32:34.347Z,0.30
2023-11-20T17:35:05.065Z,0.20
2023-11-20T17:37:34.963Z,0.50
2023-11-20T17:40:05.349Z,0.30
2023-11-20T17:42:35.765Z,0.20
2023-11-20T17:45:05.957Z,0.15
2023-11-20T17:47:37.550Z,0.13
2023-11-20T17:50:09.169Z,0.10
2023-11-20T17:52:40.812Z,0.43
2023-11-20T17:55:13.537Z,0.30
2023-11-20T17:57:43.441Z,0.20
2023-11-20T18:00:15.263Z,0.30
2023-11-20T18:02:47.975Z,0.85
2023-11-20T18:05:18.588Z,2.80
2023-11-20T18:07:48.482Z,0.52
2023-11-20T18:10:18.565Z,0.60
2023-11-20T18:12:49.179Z,0.60
2023-11-20T18:15:19.955Z,0.20
2023-11-20T18:17:50.347Z,0.30
2023-11-20T18:20:20.605Z,0.60
2023-11-20T18:22:50.496Z,0.60
2023-11-20T18:25:20.535Z,0.28
2023-11-20T18:27:51.638Z,0.30
2023-11-20T18:30:22.824Z,0.10
2023-11-20T18:32:54.059Z,0.10
2023-11-20T18:35:26.153Z,0.10
2023-11-20T18:37:56.021Z,0.40
2023-11-20T18:40:25.983Z,0.73
2023-11-20T18:42:55.761Z,1.00
2023-11-20T18:47:12.855Z,3.70
2023-11-20T18:49:44.102Z,2.70
2023-11-20T18:52:14.815Z,1.20
2023-11-20T18:54:44.604Z,0.98
2023-11-20T18:57:14.482Z,1.00
2023-11-20T18:59:44.422Z,2.83
2023-11-20T19:02:16.091Z,1.50
2023-11-20T19:04:46.322Z,7.07
2023-11-20T19:07:16.296Z,4.70
2023-11-20T19:09:46.102Z,3.00
2023-11-20T19:12:16.011Z,0.75
2023-11-20T19:14:45.800Z,0.55
2023-11-20T19:17:17.214Z,0.30
2023-11-20T19:19:47.063Z,1.02
2023-11-20T19:22:17.041Z,1.70
2023-11-20T19:24:47.825Z,0.40
2023-11-20T19:27:17.793Z,4.82
2023-11-20T19:29:47.600Z,0.52
2023-11-20T19:32:18.988Z,3.85
2023-11-20T19:34:48.915Z,5.05
2023-11-20T19:37:18.756Z,1.30
2023-11-20T19:39:49.064Z,1.90
2023-11-20T19:42:19.062Z,3.33
2023-11-20T19:44:49.764Z,1.75
2023-11-20T19:47:21.373Z,2.45
2023-11-20T19:49:51.380Z,2.65
2023-11-20T19:52:25.193Z,2.80
2023-11-20T19:54:55.216Z,3.40
2023-11-20T19:57:25.189Z,5.55
2023-11-20T19:59:55.051Z,0.77
2023-11-20T20:02:26.418Z,5.85
2023-11-20T20:04:56.287Z,4.35
2023-11-20T20:07:27.212Z,1.10
2023-11-20T20:09:57.133Z,2.15
2023-11-20T20:12:27.041Z,1.00
2023-11-20T20:14:56.886Z,2.03
2023-11-20T20:17:28.277Z,3.05
2023-11-20T20:19:58.087Z,2.88
2023-11-20T20:22:28.418Z,1.02
2023-11-20T20:24:58.335Z,2.50
2023-11-20T20:27:28.281Z,1.77
2023-11-20T20:29:58.710Z,1.38
2023-11-20T20:32:30.826Z,0.13
2023-11-20T20:35:00.839Z,1.17
2023-11-20T20:37:33.318Z,0.13
2023-11-20T20:40:03.483Z,0.70
2023-11-20T20:42:33.461Z,0.20
2023-11-20T20:45:03.370Z,0.30
2023-11-20T20:47:34.959Z,0.30
2023-11-20T20:50:04.921Z,0.55
2023-11-20T20:52:34.772Z,0.28
2023-11-20T20:55:03.596Z,0.30
2023-11-20T20:57:34.828Z,0.20
2023-11-20T21:00:10.252Z,0.10
2023-11-20T21:02:41.605Z,0.10
2023-11-20T21:05:12.974Z,0.17
2023-11-20T21:07:43.425Z,0.10
2023-11-20T21:10:13.831Z,0.28
2023-11-20T21:12:43.876Z,0.17
2023-11-20T21:15:15.989Z,0.25
2023-11-20T21:17:50.223Z,0.20
2023-11-20T21:20:21.579Z,0.10
2023-11-20T21:22:52.134Z,0.00
2023-11-20T21:25:24.498Z,0.10
2023-11-20T21:27:54.578Z,0.15
2023-11-20T21:30:24.481Z,0.10
2023-11-20T21:32:56.108Z,0.10
2023-11-20T21:35:37.075Z,0.10
2023-11-20T21:38:13.501Z,0.00
2023-11-20T21:40:43.335Z,0.10
2023-11-20T21:43:15.632Z,0.00
2023-11-20T21:47:12.315Z,0.00
2023-11-20T21:49:42.804Z,0.10
2023-11-20T21:52:13.193Z,0.00
2023-11-20T21:54:42.961Z,0.10
2023-11-20T21:57:12.713Z,0.10
2023-11-20T21:59:44.100Z,0.10
2023-11-20T22:02:15.538Z,0.10
2023-11-20T22:04:45.523Z,0.10
2023-11-20T22:07:20.159Z,0.32
2023-11-20T22:09:50.007Z,0.30
2023-11-20T22:12:19.773Z,0.50
2023-11-20T22:14:49.762Z,1.50
2023-11-20T22:17:21.065Z,1.73
2023-11-20T22:19:50.944Z,1.63
2023-11-20T22:22:21.014Z,0.25
2023-11-20T22:24:51.406Z,0.13
2023-11-20T22:27:21.483Z,0.10
2023-11-20T22:29:51.301Z,0.00
2023-11-20T22:32:23.532Z,0.08
2023-11-20T22:35:09.652Z,0.10
2023-11-20T22:37:43.953Z,0.30
2023-11-20T22:40:17.539Z,0.15
2023-11-20T22:42:48.151Z,0.20
2023-11-20T22:45:18.033Z,0.25
2023-11-20T22:47:49.514Z,0.10
2023-11-20T22:50:19.475Z,0.10
2023-11-20T22:52:49.662Z,0.20
2023-11-20T22:55:19.929Z,0.30
2023-11-20T22:57:50.250Z,0.47
2023-11-20T23:00:26.679Z,3.47
2023-11-20T23:02:58.238Z,9.32
2023-11-20T23:05:28.109Z,6.82
2023-11-20T23:07:57.918Z,3.58
2023-11-20T23:10:27.845Z,1.88
2023-11-20T23:12:57.843Z,1.35
2023-11-20T23:15:27.705Z,0.55
2023-11-20T23:17:59.988Z,0.65
2023-11-20T23:20:30.142Z,0.40
2023-11-20T23:23:00.064Z,0.20
2023-11-20T23:25:29.977Z,0.20
2023-11-20T23:28:01.741Z,0.25
2023-11-20T23:30:32.704Z,0.40
2023-11-20T23:33:05.403Z,0.30
2023-11-20T23:35:35.601Z,0.30
2023-11-20T23:38:05.364Z,0.20
2023-11-20T23:40:35.286Z,0.20
2023-11-20T23:43:06.163Z,0.20
2023-11-20T23:45:36.042Z,0.32
2023-11-20T23:48:09.168Z,0.30
2023-11-20T23:50:39.686Z,0.15
2023-11-20T23:53:10.108Z,0.10
2023-11-20T23:55:39.889Z,0.10
2023-11-20T23:58:09.930Z,0.10
